sensor_id;sensor_type;location;lat;lon;timestamp;P1;durP1;ratioP1;P2;durP2;ratioP2
3331;SDS011;1678;50.94845400;5.30809100;2023-02-27T00:01:29;2.15;;;0.95;;
3331;SDS011;1678;50.94845400;5.30809100;2023-02-27T00:04:00;0.90;;;0.90;;
3331;SDS011;1678;50.94845400;5.30809100;2023-02-27T00:06:28;1.58;;;0.55;;
3331;SDS011;1678;50.94845400;5.30809100;2023-02-27T00:08:56;1.63;;;1.27;;
3331;SDS011;1678;50.94845400;5.30809100;2023-02-27T00:11:25;6.45;;;1.27;;
3331;SDS011;1678;50.94845400;5.30809100;2023-02-27T00:13:54;5.10;;;1.88;;
3331;SDS011;1678;50.94845400;5.30809100;2023-02-27T00:16:22;5.82;;;1.00;;
3331;SDS011;1678;50.94845400;5.30809100;2023-02-27T00:18:51;1.92;;;1.02;;
3331;SDS011;1678;50.94845400;5.30809100;2023-02-27T00:21:20;5.00;;;1.65;;
3331;SDS011;1678;50.94845400;5.30809100;2023-02-27T00:23:49;1.10;;;1.00;;
3331;SDS011;1678;50.94845400;5.30809100;2023-02-27T00:26:17;4.72;;;1.90;;
3331;SDS011;1678;50.94845400;5.30809100;2023-02-27T00:28:46;3.20;;;1.50;;
3331;SDS011;1678;50.94845400;5.30809100;2023-02-27T00:31:14;3.88;;;1.15;;
3331;SDS011;1678;50.94845400;5.30809100;2023-02-27T00:33:42;4.15;;;1.05;;
3331;SDS011;1678;50.94845400;5.30809100;2023-02-27T00:36:10;2.40;;;0.93;;
3331;SDS011;1678;50.94845400;5.30809100;2023-02-27T00:38:40;3.35;;;1.50;;
3331;SDS011;1678;50.94845400;5.30809100;2023-02-27T00:41:08;0.90;;;0.90;;
3331;SDS011;1678;50.94845400;5.30809100;2023-02-27T00:43:36;1.75;;;1.38;;
3331;SDS011;1678;50.94845400;5.30809100;2023-02-27T00:46:04;7.00;;;1.00;;
3331;SDS011;1678;50.94845400;5.30809100;2023-02-27T00:48:32;0.95;;;0.95;;
3331;SDS011;1678;50.94845400;5.30809100;2023-02-27T00:51:00;0.93;;;0.93;;
3331;SDS011;1678;50.94845400;5.30809100;2023-02-27T00:53:28;1.70;;;1.55;;
3331;SDS011;1678;50.94845400;5.30809100;2023-02-27T00:55:58;1.05;;;0.60;;
3331;SDS011;1678;50.94845400;5.30809100;2023-02-27T00:58:26;11.07;;;1.60;;
3331;SDS011;1678;50.94845400;5.30809100;2023-02-27T01:00:54;5.57;;;1.38;;
3331;SDS011;1678;50.94845400;5.30809100;2023-02-27T01:03:25;9.50;;;1.15;;
3331;SDS011;1678;50.94845400;5.30809100;2023-02-27T01:05:53;1.50;;;1.02;;
3331;SDS011;1678;50.94845400;5.30809100;2023-02-27T01:08:22;1.30;;;1.20;;
3331;SDS011;1678;50.94845400;5.30809100;2023-02-27T01:10:52;1.40;;;1.27;;
3331;SDS011;1678;50.94845400;5.30809100;2023-02-27T01:13:22;3.90;;;1.45;;
3331;SDS011;1678;50.94845400;5.30809100;2023-02-27T01:15:50;3.42;;;1.35;;
3331;SDS011;1678;50.94845400;5.30809100;2023-02-27T01:18:18;5.22;;;2.05;;
3331;SDS011;1678;50.94845400;5.30809100;2023-02-27T01:20:50;11.27;;;1.20;;
3331;SDS011;1678;50.94845400;5.30809100;2023-02-27T01:23:18;6.07;;;0.95;;
3331;SDS011;1678;50.94845400;5.30809100;2023-02-27T01:25:47;44.83;;;2.05;;
3331;SDS011;1678;50.94845400;5.30809100;2023-02-27T01:28:16;3.15;;;2.05;;
3331;SDS011;1678;50.94845400;5.30809100;2023-02-27T01:30:45;1.77;;;0.82;;
3331;SDS011;1678;50.94845400;5.30809100;2023-02-27T01:33:13;1.10;;;0.85;;
3331;SDS011;1678;50.94845400;5.30809100;2023-02-27T01:35:41;4.55;;;1.00;;
3331;SDS011;1678;50.94845400;5.30809100;2023-02-27T01:38:09;2.55;;;0.63;;
3331;SDS011;1678;50.94845400;5.30809100;2023-02-27T01:40:38;5.93;;;1.35;;
3331;SDS011;1678;50.94845400;5.30809100;2023-02-27T01:43:09;3.15;;;2.35;;
3331;SDS011;1678;50.94845400;5.30809100;2023-02-27T01:45:41;2.08;;;1.90;;
3331;SDS011;1678;50.94845400;5.30809100;2023-02-27T01:48:15;2.55;;;0.88;;
3331;SDS011;1678;50.94845400;5.30809100;2023-02-27T01:50:46;1.35;;;1.23;;
3331;SDS011;1678;50.94845400;5.30809100;2023-02-27T01:53:17;3.28;;;1.52;;
3331;SDS011;1678;50.94845400;5.30809100;2023-02-27T01:55:50;1.75;;;1.27;;
3331;SDS011;1678;50.94845400;5.30809100;2023-02-27T01:58:20;8.07;;;1.80;;
3331;SDS011;1678;50.94845400;5.30809100;2023-02-27T02:00:49;8.35;;;1.40;;
3331;SDS011;1678;50.94845400;5.30809100;2023-02-27T02:03:21;1.85;;;1.60;;
3331;SDS011;1678;50.94845400;5.30809100;2023-02-27T02:05:54;4.30;;;1.20;;
3331;SDS011;1678;50.94845400;5.30809100;2023-02-27T02:08:24;3.25;;;1.65;;
3331;SDS011;1678;50.94845400;5.30809100;2023-02-27T02:10:55;2.45;;;1.48;;
3331;SDS011;1678;50.94845400;5.30809100;2023-02-27T02:13:25;5.05;;;0.90;;
3331;SDS011;1678;50.94845400;5.30809100;2023-02-27T02:16:00;11.50;;;1.90;;
3331;SDS011;1678;50.94845400;5.30809100;2023-02-27T02:18:44;4.05;;;1.15;;
3331;SDS011;1678;50.94845400;5.30809100;2023-02-27T02:21:39;1.75;;;0.80;;
3331;SDS011;1678;50.94845400;5.30809100;2023-02-27T02:27:29;3.58;;;1.00;;
3331;SDS011;1678;50.94845400;5.30809100;2023-02-27T02:33:23;2.10;;;2.00;;
3331;SDS011;1678;50.94845400;5.30809100;2023-02-27T02:36:35;4.22;;;1.65;;
3331;SDS011;1678;50.94845400;5.30809100;2023-02-27T02:39:43;5.55;;;2.72;;
3331;SDS011;1678;50.94845400;5.30809100;2023-02-27T02:42:24;1.77;;;1.67;;
3331;SDS011;1678;50.94845400;5.30809100;2023-02-27T02:45:02;2.15;;;1.73;;
3331;SDS011;1678;50.94845400;5.30809100;2023-02-27T02:47:38;2.40;;;1.90;;
3331;SDS011;1678;50.94845400;5.30809100;2023-02-27T02:50:18;5.43;;;1.20;;
3331;SDS011;1678;50.94845400;5.30809100;2023-02-27T02:52:54;1.88;;;1.75;;
3331;SDS011;1678;50.94845400;5.30809100;2023-02-27T02:55:31;1.42;;;0.95;;
3331;SDS011;1678;50.94845400;5.30809100;2023-02-27T02:58:03;0.77;;;0.77;;
3331;SDS011;1678;50.94845400;5.30809100;2023-02-27T03:00:37;1.30;;;1.30;;
3331;SDS011;1678;50.94845400;5.30809100;2023-02-27T03:03:09;10.68;;;2.28;;
3331;SDS011;1678;50.94845400;5.30809100;2023-02-27T03:05:43;1.67;;;1.23;;
3331;SDS011;1678;50.94845400;5.30809100;2023-02-27T03:08:17;3.55;;;1.80;;
3331;SDS011;1678;50.94845400;5.30809100;2023-02-27T03:10:50;7.90;;;1.73;;
3331;SDS011;1678;50.94845400;5.30809100;2023-02-27T03:13:25;1.85;;;1.75;;
3331;SDS011;1678;50.94845400;5.30809100;2023-02-27T03:15:58;1.20;;;1.20;;
3331;SDS011;1678;50.94845400;5.30809100;2023-02-27T03:18:31;1.20;;;1.05;;
3331;SDS011;1678;50.94845400;5.30809100;2023-02-27T03:21:03;2.95;;;1.67;;
3331;SDS011;1678;50.94845400;5.30809100;2023-02-27T03:23:37;5.20;;;1.65;;
3331;SDS011;1678;50.94845400;5.30809100;2023-02-27T03:26:10;2.60;;;2.50;;
3331;SDS011;1678;50.94845400;5.30809100;2023-02-27T03:28:56;3.83;;;2.13;;
3331;SDS011;1678;50.94845400;5.30809100;2023-02-27T03:31:29;4.43;;;1.92;;
3331;SDS011;1678;50.94845400;5.30809100;2023-02-27T03:34:02;3.20;;;1.30;;
3331;SDS011;1678;50.94845400;5.30809100;2023-02-27T03:36:37;3.85;;;1.90;;
3331;SDS011;1678;50.94845400;5.30809100;2023-02-27T03:39:18;8.52;;;2.63;;
3331;SDS011;1678;50.94845400;5.30809100;2023-02-27T03:41:56;4.18;;;1.30;;
3331;SDS011;1678;50.94845400;5.30809100;2023-02-27T03:44:33;2.42;;;1.58;;
3331;SDS011;1678;50.94845400;5.30809100;2023-02-27T03:47:10;6.40;;;2.03;;
3331;SDS011;1678;50.94845400;5.30809100;2023-02-27T03:49:38;7.63;;;1.92;;
3331;SDS011;1678;50.94845400;5.30809100;2023-02-27T03:52:06;2.15;;;2.05;;
3331;SDS011;1678;50.94845400;5.30809100;2023-02-27T03:54:35;15.13;;;1.95;;
3331;SDS011;1678;50.94845400;5.30809100;2023-02-27T03:57:07;1.83;;;1.83;;
3331;SDS011;1678;50.94845400;5.30809100;2023-02-27T03:59:36;3.25;;;1.20;;
3331;SDS011;1678;50.94845400;5.30809100;2023-02-27T04:02:05;4.57;;;2.65;;
3331;SDS011;1678;50.94845400;5.30809100;2023-02-27T04:04:34;2.95;;;2.75;;
3331;SDS011;1678;50.94845400;5.30809100;2023-02-27T04:07:04;1.83;;;1.73;;
3331;SDS011;1678;50.94845400;5.30809100;2023-02-27T04:10:03;4.63;;;1.60;;
3331;SDS011;1678;50.94845400;5.30809100;2023-02-27T04:12:55;16.35;;;2.47;;
3331;SDS011;1678;50.94845400;5.30809100;2023-02-27T04:15:45;2.25;;;2.05;;
3331;SDS011;1678;50.94845400;5.30809100;2023-02-27T04:18:38;3.45;;;1.80;;
3331;SDS011;1678;50.94845400;5.30809100;2023-02-27T04:21:17;1.95;;;1.85;;
3331;SDS011;1678;50.94845400;5.30809100;2023-02-27T04:23:53;2.95;;;2.60;;
3331;SDS011;1678;50.94845400;5.30809100;2023-02-27T04:26:30;1.52;;;1.42;;
3331;SDS011;1678;50.94845400;5.30809100;2023-02-27T04:29:06;4.82;;;1.92;;
3331;SDS011;1678;50.94845400;5.30809100;2023-02-27T04:31:41;2.08;;;1.98;;
3331;SDS011;1678;50.94845400;5.30809100;2023-02-27T04:34:17;3.78;;;1.83;;
3331;SDS011;1678;50.94845400;5.30809100;2023-02-27T04:36:51;1.88;;;1.70;;
3331;SDS011;1678;50.94845400;5.30809100;2023-02-27T04:39:25;1.70;;;1.60;;
3331;SDS011;1678;50.94845400;5.30809100;2023-02-27T04:41:57;2.50;;;2.17;;
3331;SDS011;1678;50.94845400;5.30809100;2023-02-27T04:44:31;1.83;;;1.73;;
3331;SDS011;1678;50.94845400;5.30809100;2023-02-27T04:47:03;12.02;;;1.80;;
3331;SDS011;1678;50.94845400;5.30809100;2023-02-27T04:49:34;2.33;;;2.17;;
3331;SDS011;1678;50.94845400;5.30809100;2023-02-27T04:52:06;2.30;;;1.63;;
3331;SDS011;1678;50.94845400;5.30809100;2023-02-27T04:54:38;3.03;;;1.95;;
3331;SDS011;1678;50.94845400;5.30809100;2023-02-27T04:57:11;2.00;;;1.80;;
3331;SDS011;1678;50.94845400;5.30809100;2023-02-27T04:59:48;1.83;;;1.73;;
3331;SDS011;1678;50.94845400;5.30809100;2023-02-27T05:02:20;5.72;;;3.25;;
3331;SDS011;1678;50.94845400;5.30809100;2023-02-27T05:04:52;3.90;;;1.95;;
3331;SDS011;1678;50.94845400;5.30809100;2023-02-27T05:07:24;2.70;;;1.48;;
3331;SDS011;1678;50.94845400;5.30809100;2023-02-27T05:09:57;2.40;;;2.30;;
3331;SDS011;1678;50.94845400;5.30809100;2023-02-27T05:12:28;2.45;;;2.40;;
3331;SDS011;1678;50.94845400;5.30809100;2023-02-27T05:15:03;1.65;;;1.55;;
3331;SDS011;1678;50.94845400;5.30809100;2023-02-27T05:17:39;2.10;;;2.00;;
3331;SDS011;1678;50.94845400;5.30809100;2023-02-27T05:20:11;3.35;;;1.73;;
3331;SDS011;1678;50.94845400;5.30809100;2023-02-27T05:22:43;3.30;;;2.05;;
3331;SDS011;1678;50.94845400;5.30809100;2023-02-27T05:25:13;6.90;;;2.63;;
3331;SDS011;1678;50.94845400;5.30809100;2023-02-27T05:27:48;3.38;;;2.80;;
3331;SDS011;1678;50.94845400;5.30809100;2023-02-27T05:30:22;2.13;;;2.03;;
3331;SDS011;1678;50.94845400;5.30809100;2023-02-27T05:32:56;2.53;;;2.30;;
3331;SDS011;1678;50.94845400;5.30809100;2023-02-27T05:35:33;3.70;;;2.25;;
3331;SDS011;1678;50.94845400;5.30809100;2023-02-27T05:38:08;4.88;;;2.13;;
3331;SDS011;1678;50.94845400;5.30809100;2023-02-27T05:40:42;3.47;;;2.75;;
3331;SDS011;1678;50.94845400;5.30809100;2023-02-27T05:43:14;5.70;;;2.53;;
3331;SDS011;1678;50.94845400;5.30809100;2023-02-27T05:45:49;3.40;;;3.10;;
3331;SDS011;1678;50.94845400;5.30809100;2023-02-27T05:48:20;7.00;;;3.30;;
3331;SDS011;1678;50.94845400;5.30809100;2023-02-27T05:50:53;3.50;;;2.88;;
3331;SDS011;1678;50.94845400;5.30809100;2023-02-27T05:53:23;7.60;;;2.63;;
3331;SDS011;1678;50.94845400;5.30809100;2023-02-27T05:55:57;5.93;;;2.92;;
3331;SDS011;1678;50.94845400;5.30809100;2023-02-27T05:58:28;3.97;;;3.25;;
3331;SDS011;1678;50.94845400;5.30809100;2023-02-27T06:01:01;3.65;;;3.00;;
3331;SDS011;1678;50.94845400;5.30809100;2023-02-27T06:03:31;8.77;;;3.17;;
3331;SDS011;1678;50.94845400;5.30809100;2023-02-27T06:06:02;2.85;;;2.35;;
3331;SDS011;1678;50.94845400;5.30809100;2023-02-27T06:08:32;8.88;;;3.20;;
3331;SDS011;1678;50.94845400;5.30809100;2023-02-27T06:11:01;8.63;;;3.08;;
3331;SDS011;1678;50.94845400;5.30809100;2023-02-27T06:13:29;3.13;;;2.92;;
3331;SDS011;1678;50.94845400;5.30809100;2023-02-27T06:15:57;4.10;;;2.08;;
3331;SDS011;1678;50.94845400;5.30809100;2023-02-27T06:18:27;5.78;;;3.00;;
3331;SDS011;1678;50.94845400;5.30809100;2023-02-27T06:20:55;2.55;;;2.35;;
3331;SDS011;1678;50.94845400;5.30809100;2023-02-27T06:23:23;3.72;;;2.90;;
3331;SDS011;1678;50.94845400;5.30809100;2023-02-27T06:25:51;5.22;;;4.03;;
3331;SDS011;1678;50.94845400;5.30809100;2023-02-27T06:28:19;4.65;;;3.30;;
3331;SDS011;1678;50.94845400;5.30809100;2023-02-27T06:30:51;12.63;;;3.58;;
3331;SDS011;1678;50.94845400;5.30809100;2023-02-27T06:33:20;3.83;;;3.63;;
3331;SDS011;1678;50.94845400;5.30809100;2023-02-27T06:35:49;3.90;;;3.50;;
3331;SDS011;1678;50.94845400;5.30809100;2023-02-27T06:38:18;4.43;;;3.80;;
3331;SDS011;1678;50.94845400;5.30809100;2023-02-27T06:40:46;5.07;;;3.90;;
3331;SDS011;1678;50.94845400;5.30809100;2023-02-27T06:43:14;3.13;;;2.92;;
3331;SDS011;1678;50.94845400;5.30809100;2023-02-27T06:45:42;4.50;;;3.47;;
3331;SDS011;1678;50.94845400;5.30809100;2023-02-27T06:48:10;8.43;;;4.55;;
3331;SDS011;1678;50.94845400;5.30809100;2023-02-27T06:50:40;15.13;;;3.22;;
3331;SDS011;1678;50.94845400;5.30809100;2023-02-27T06:53:09;5.25;;;3.10;;
3331;SDS011;1678;50.94845400;5.30809100;2023-02-27T06:55:37;9.27;;;3.67;;
3331;SDS011;1678;50.94845400;5.30809100;2023-02-27T06:58:07;4.60;;;3.97;;
3331;SDS011;1678;50.94845400;5.30809100;2023-02-27T07:00:36;11.68;;;4.45;;
3331;SDS011;1678;50.94845400;5.30809100;2023-02-27T07:03:04;5.85;;;4.53;;
3331;SDS011;1678;50.94845400;5.30809100;2023-02-27T07:05:32;3.70;;;3.47;;
3331;SDS011;1678;50.94845400;5.30809100;2023-02-27T07:08:00;5.55;;;3.63;;
3331;SDS011;1678;50.94845400;5.30809100;2023-02-27T07:10:31;8.27;;;4.05;;
3331;SDS011;1678;50.94845400;5.30809100;2023-02-27T07:13:00;9.80;;;3.80;;
3331;SDS011;1678;50.94845400;5.30809100;2023-02-27T07:15:28;6.28;;;5.75;;
3331;SDS011;1678;50.94845400;5.30809100;2023-02-27T07:17:56;6.25;;;2.95;;
3331;SDS011;1678;50.94845400;5.30809100;2023-02-27T07:20:24;4.35;;;4.05;;
3331;SDS011;1678;50.94845400;5.30809100;2023-02-27T07:22:53;5.05;;;4.70;;
3331;SDS011;1678;50.94845400;5.30809100;2023-02-27T07:25:21;8.52;;;5.72;;
3331;SDS011;1678;50.94845400;5.30809100;2023-02-27T07:27:50;10.65;;;4.50;;
3331;SDS011;1678;50.94845400;5.30809100;2023-02-27T07:30:19;10.48;;;5.13;;
3331;SDS011;1678;50.94845400;5.30809100;2023-02-27T07:32:47;9.55;;;5.95;;
3331;SDS011;1678;50.94845400;5.30809100;2023-02-27T07:35:16;6.80;;;4.10;;
3331;SDS011;1678;50.94845400;5.30809100;2023-02-27T07:37:45;4.82;;;4.53;;
3331;SDS011;1678;50.94845400;5.30809100;2023-02-27T07:40:13;6.05;;;5.30;;
3331;SDS011;1678;50.94845400;5.30809100;2023-02-27T07:42:41;6.63;;;4.93;;
3331;SDS011;1678;50.94845400;5.30809100;2023-02-27T07:45:11;8.40;;;6.78;;
3331;SDS011;1678;50.94845400;5.30809100;2023-02-27T07:47:39;5.63;;;4.60;;
3331;SDS011;1678;50.94845400;5.30809100;2023-02-27T07:50:08;9.10;;;5.07;;
3331;SDS011;1678;50.94845400;5.30809100;2023-02-27T07:52:39;11.88;;;5.50;;
3331;SDS011;1678;50.94845400;5.30809100;2023-02-27T07:55:08;8.68;;;4.85;;
3331;SDS011;1678;50.94845400;5.30809100;2023-02-27T07:57:38;4.55;;;4.25;;
3331;SDS011;1678;50.94845400;5.30809100;2023-02-27T08:00:07;10.02;;;4.18;;
3331;SDS011;1678;50.94845400;5.30809100;2023-02-27T08:02:38;7.50;;;3.83;;
3331;SDS011;1678;50.94845400;5.30809100;2023-02-27T08:05:06;7.43;;;6.70;;
3331;SDS011;1678;50.94845400;5.30809100;2023-02-27T08:07:34;9.68;;;4.88;;
3331;SDS011;1678;50.94845400;5.30809100;2023-02-27T08:10:03;9.52;;;5.65;;
3331;SDS011;1678;50.94845400;5.30809100;2023-02-27T08:12:31;10.93;;;6.13;;
3331;SDS011;1678;50.94845400;5.30809100;2023-02-27T08:15:00;12.82;;;5.15;;
3331;SDS011;1678;50.94845400;5.30809100;2023-02-27T08:17:28;6.40;;;5.00;;
3331;SDS011;1678;50.94845400;5.30809100;2023-02-27T08:19:57;6.97;;;5.40;;
3331;SDS011;1678;50.94845400;5.30809100;2023-02-27T08:22:25;3.90;;;3.60;;
3331;SDS011;1678;50.94845400;5.30809100;2023-02-27T08:24:53;4.85;;;4.15;;
3331;SDS011;1678;50.94845400;5.30809100;2023-02-27T08:27:22;5.43;;;5.00;;
3331;SDS011;1678;50.94845400;5.30809100;2023-02-27T08:29:50;5.75;;;4.43;;
3331;SDS011;1678;50.94845400;5.30809100;2023-02-27T08:32:18;10.30;;;5.38;;
3331;SDS011;1678;50.94845400;5.30809100;2023-02-27T08:34:46;4.85;;;4.55;;
3331;SDS011;1678;50.94845400;5.30809100;2023-02-27T08:37:16;9.57;;;4.75;;
3331;SDS011;1678;50.94845400;5.30809100;2023-02-27T08:39:44;6.43;;;4.75;;
3331;SDS011;1678;50.94845400;5.30809100;2023-02-27T08:42:12;8.75;;;3.83;;
3331;SDS011;1678;50.94845400;5.30809100;2023-02-27T08:44:41;9.00;;;3.95;;
3331;SDS011;1678;50.94845400;5.30809100;2023-02-27T08:47:09;4.90;;;4.53;;
3331;SDS011;1678;50.94845400;5.30809100;2023-02-27T08:49:37;4.43;;;3.90;;
3331;SDS011;1678;50.94845400;5.30809100;2023-02-27T08:52:05;3.92;;;3.72;;
3331;SDS011;1678;50.94845400;5.30809100;2023-02-27T08:54:36;4.78;;;3.13;;
3331;SDS011;1678;50.94845400;5.30809100;2023-02-27T08:57:04;3.80;;;3.50;;
3331;SDS011;1678;50.94845400;5.30809100;2023-02-27T08:59:32;3.63;;;3.45;;
3331;SDS011;1678;50.94845400;5.30809100;2023-02-27T09:02:00;3.10;;;2.90;;
3331;SDS011;1678;50.94845400;5.30809100;2023-02-27T09:04:28;4.20;;;4.00;;
3331;SDS011;1678;50.94845400;5.30809100;2023-02-27T09:06:57;12.02;;;3.90;;
3331;SDS011;1678;50.94845400;5.30809100;2023-02-27T09:09:25;4.78;;;4.38;;
3331;SDS011;1678;50.94845400;5.30809100;2023-02-27T09:11:54;7.35;;;4.00;;
3331;SDS011;1678;50.94845400;5.30809100;2023-02-27T09:14:22;3.17;;;2.97;;
3331;SDS011;1678;50.94845400;5.30809100;2023-02-27T09:16:51;3.33;;;3.03;;
3331;SDS011;1678;50.94845400;5.30809100;2023-02-27T09:19:19;4.13;;;3.50;;
3331;SDS011;1678;50.94845400;5.30809100;2023-02-27T09:21:47;6.20;;;4.10;;
3331;SDS011;1678;50.94845400;5.30809100;2023-02-27T09:24:15;6.55;;;3.45;;
3331;SDS011;1678;50.94845400;5.30809100;2023-02-27T09:26:46;4.97;;;3.15;;
3331;SDS011;1678;50.94845400;5.30809100;2023-02-27T09:29:16;6.72;;;3.30;;
3331;SDS011;1678;50.94845400;5.30809100;2023-02-27T09:31:44;3.47;;;3.28;;
3331;SDS011;1678;50.94845400;5.30809100;2023-02-27T09:34:13;4.45;;;4.05;;
3331;SDS011;1678;50.94845400;5.30809100;2023-02-27T09:36:41;4.55;;;4.10;;
3331;SDS011;1678;50.94845400;5.30809100;2023-02-27T09:39:09;3.35;;;3.15;;
3331;SDS011;1678;50.94845400;5.30809100;2023-02-27T09:41:49;7.30;;;3.95;;
3331;SDS011;1678;50.94845400;5.30809100;2023-02-27T09:44:31;3.30;;;3.10;;
3331;SDS011;1678;50.94845400;5.30809100;2023-02-27T09:47:14;2.58;;;2.33;;
3331;SDS011;1678;50.94845400;5.30809100;2023-02-27T09:49:46;2.55;;;2.45;;
3331;SDS011;1678;50.94845400;5.30809100;2023-02-27T09:52:20;2.63;;;2.42;;
3331;SDS011;1678;50.94845400;5.30809100;2023-02-27T09:54:48;4.18;;;2.83;;
3331;SDS011;1678;50.94845400;5.30809100;2023-02-27T09:57:18;3.72;;;2.17;;
3331;SDS011;1678;50.94845400;5.30809100;2023-02-27T09:59:55;2.20;;;2.00;;
3331;SDS011;1678;50.94845400;5.30809100;2023-02-27T10:02:33;3.30;;;2.30;;
3331;SDS011;1678;50.94845400;5.30809100;2023-02-27T10:05:13;2.58;;;2.47;;
3331;SDS011;1678;50.94845400;5.30809100;2023-02-27T10:07:51;2.75;;;2.25;;
3331;SDS011;1678;50.94845400;5.30809100;2023-02-27T10:10:28;6.10;;;2.88;;
3331;SDS011;1678;50.94845400;5.30809100;2023-02-27T10:13:15;2.42;;;2.33;;
3331;SDS011;1678;50.94845400;5.30809100;2023-02-27T10:15:57;4.05;;;2.88;;
3331;SDS011;1678;50.94845400;5.30809100;2023-02-27T10:18:27;2.35;;;2.25;;
3331;SDS011;1678;50.94845400;5.30809100;2023-02-27T10:20:58;4.07;;;2.95;;
3331;SDS011;1678;50.94845400;5.30809100;2023-02-27T10:23:32;2.38;;;2.35;;
3331;SDS011;1678;50.94845400;5.30809100;2023-02-27T10:26:05;3.03;;;2.83;;
3331;SDS011;1678;50.94845400;5.30809100;2023-02-27T10:28:40;2.97;;;2.78;;
3331;SDS011;1678;50.94845400;5.30809100;2023-02-27T10:31:12;3.00;;;2.80;;
3331;SDS011;1678;50.94845400;5.30809100;2023-02-27T10:33:46;6.95;;;3.40;;
3331;SDS011;1678;50.94845400;5.30809100;2023-02-27T10:36:14;4.25;;;3.28;;
3331;SDS011;1678;50.94845400;5.30809100;2023-02-27T10:38:59;3.42;;;3.30;;
